Terminal Aerodrome Forecast
Issued by NWS Topeka, KS

Home | Current Version | Previous Version | Graphics & Text | Print | Product List | Glossary On
Versions: 1 2 3 4 5 6 7 8 9 10 11 12 13 14 15
000
FTUS43 KTOP 222333
TAFTOP
TAF
KTOP 222333Z 2300/2324 17008KT P6SM SCT200
     FM230600 23004KT P6SM VCTS BKN070CB
     FM231000 01009KT P6SM VCSH BKN030
     FM231300 36011KT P6SM BKN040
     FM231600 36011KT P6SM SCT100=

USA.gov is the U.S. government's official web portal to all federal, state and local government web resources and services.